Time;durP1;ratioP1;P1;durP2;ratioP2;P2;SDS_P1;SDS_P2;PMS_P1;PMS_P2;Temp;Humidity;BMP_temperature;BMP_pressure;BME280_temperature;BME280_humidity;BME280_pressure;Samples;Min_cycle;Max_cycle;Signal;HPM_P1;HPM_P2
2021/12/19 00:02:41;;;;;;;;;;;153.90;2252.80;;;;;;5032155;28;19905;-81
2021/12/19 00:10:24;;;;;;;;;;;153.70;2252.80;;;;;;5032108;28;20362;-83
2021/12/19 00:12:51;;;;;;;;;;;153.80;2252.80;;;;;;5006660;28;1182050;-78
2021/12/19 00:15:17;;;;;;;;;;;153.90;2252.80;;;;;;5035237;28;19908;-83
2021/12/19 00:17:43;;;;;;;;;;;153.80;2252.80;;;;;;5035038;28;19967;-75
2021/12/19 00:20:09;;;;;;;;;;;153.80;2252.80;;;;;;5035109;28;19909;-83
2021/12/19 00:22:35;;;;;;;;;;;153.60;2252.80;;;;;;5052836;28;19958;-77
2021/12/19 00:25:00;;;;;;;;;;;153.60;2252.80;;;;;;5055350;28;20334;-79
2021/12/19 00:27:26;;;;;;;;;;;128.90;2252.80;;;;;;5064268;28;19913;-81
2021/12/19 00:29:52;;;;;;;;;;;128.80;2252.80;;;;;;5042904;28;19908;-75
2021/12/19 00:32:17;;;;;;;;;;;128.80;2252.80;;;;;;5043766;28;20013;-78
2021/12/19 00:34:43;;;;;;;;;;;128.70;2252.80;;;;;;5062343;28;20359;-81
2021/12/19 00:37:10;;;;;;;;;;;128.60;2252.80;;;;;;5064742;28;19966;-78
2021/12/19 00:39:35;;;;;;;;;;;128.70;2252.80;;;;;;5064696;28;19912;-79
2021/12/19 00:42:04;;;;;;;;;;;128.70;2252.80;;;;;;5064202;28;20269;-79
2021/12/19 00:44:32;;;;;;;;;;;128.60;2252.80;;;;;;5043720;28;19915;-79
2021/12/19 00:47:05;;;;;;;;;;;128.50;2252.80;;;;;;5043850;28;19912;-75
2021/12/19 00:49:30;;;;;;;;;;;128.60;2252.80;;;;;;5078041;28;20004;-81
2021/12/19 00:51:56;;;;;;;;;;;128.60;2252.80;;;;;;5065259;28;20325;-78
2021/12/19 00:54:22;;;;;;;;;;;128.60;2252.80;;;;;;5062121;28;19960;-74
2021/12/19 00:56:48;;;;;;;;;;;128.50;2252.80;;;;;;5064126;28;20362;-78
2021/12/19 00:59:14;;;;;;;;;;;128.60;2252.80;;;;;;5043644;28;19909;-81
2021/12/19 01:01:40;;;;;;;;;;;128.50;2252.80;;;;;;5043985;28;19905;-75
2021/12/19 01:04:09;;;;;;;;;;;128.60;2252.80;;;;;;5062178;28;19983;-81
2021/12/19 01:06:34;;;;;;;;;;;128.60;2252.80;;;;;;5059087;28;19912;-78
2021/12/19 01:09:00;;;;;;;;;;;128.60;2252.80;;;;;;5044223;28;20308;-77
2021/12/19 01:11:27;;;;;;;;;;;128.70;2252.80;;;;;;5059608;28;19913;-79
2021/12/19 01:13:53;;;;;;;;;;;128.70;2252.80;;;;;;5033747;28;19995;-80
2021/12/19 01:16:19;;;;;;;;;;;128.70;2252.80;;;;;;5037672;28;20355;-77
2021/12/19 01:18:44;;;;;;;;;;;128.70;2252.80;;;;;;5037730;28;19958;-79
2021/12/19 01:21:10;;;;;;;;;;;128.70;2252.80;;;;;;5037633;28;19955;-76
2021/12/19 01:23:37;;;;;;;;;;;128.60;2252.80;;;;;;5037995;28;19912;-79
2021/12/19 01:26:02;;;;;;;;;;;128.60;2252.80;;;;;;5037841;28;19962;-79
2021/12/19 01:28:28;;;;;;;;;;;128.50;2252.80;;;;;;5055323;28;20026;-74
2021/12/19 01:30:54;;;;;;;;;;;128.50;2252.80;;;;;;5055225;28;19994;-79
2021/12/19 01:33:19;;;;;;;;;;;128.50;2252.80;;;;;;5055438;28;19920;-76
2021/12/19 01:35:45;;;;;;;;;;;128.50;2252.80;;;;;;5055269;28;20357;-75
2021/12/19 01:38:10;;;;;;;;;;;128.50;2252.80;;;;;;5055885;28;20425;-80
2021/12/19 01:40:36;;;;;;;;;;;128.60;2252.80;;;;;;5056141;28;19904;-79
2021/12/19 01:43:02;;;;;;;;;;;128.60;2252.80;;;;;;5038343;28;19904;-77
2021/12/19 01:45:32;;;;;;;;;;;128.60;2252.80;;;;;;5038116;28;19927;-80
2021/12/19 01:47:59;;;;;;;;;;;128.60;2252.80;;;;;;5051258;28;19963;-79
2021/12/19 01:50:25;;;;;;;;;;;128.50;2252.80;;;;;;5038083;28;19905;-79
2021/12/19 01:52:51;;;;;;;;;;;128.60;2252.80;;;;;;5055641;28;19909;-75
2021/12/19 01:55:17;;;;;;;;;;;128.70;2252.80;;;;;;5050727;28;19954;-78
2021/12/19 01:57:43;;;;;;;;;;;128.80;2252.80;;;;;;5038123;28;19913;-79
2021/12/19 02:00:17;;;;;;;;;;;128.90;2252.80;;;;;;5037760;28;19905;-75
2021/12/19 02:02:42;;;;;;;;;;;153.60;2252.80;;;;;;5033350;28;20370;-80
2021/12/19 02:05:08;;;;;;;;;;;153.60;2252.80;;;;;;5055604;28;19916;-79
2021/12/19 02:07:33;;;;;;;;;;;153.70;2252.80;;;;;;5037883;28;19954;-79
2021/12/19 02:09:59;;;;;;;;;;;153.70;2252.80;;;;;;5038154;28;19958;-74
2021/12/19 02:12:24;;;;;;;;;;;153.60;2252.80;;;;;;5055217;28;19917;-79
2021/12/19 02:14:50;;;;;;;;;;;153.70;2252.80;;;;;;5037461;28;19905;-79
2021/12/19 02:17:16;;;;;;;;;;;153.80;2252.80;;;;;;5037754;28;19913;-78
2021/12/19 02:19:42;;;;;;;;;;;153.70;2252.80;;;;;;5055481;28;19904;-80
2021/12/19 02:22:07;;;;;;;;;;;153.60;2252.80;;;;;;5037090;28;19919;-75
2021/12/19 02:24:34;;;;;;;;;;;153.70;2252.80;;;;;;5055186;28;20363;-80
2021/12/19 02:27:00;;;;;;;;;;;153.60;2252.80;;;;;;5037434;28;19905;-80
2021/12/19 02:29:26;;;;;;;;;;;153.60;2252.80;;;;;;5054861;28;19916;-76
2021/12/19 02:31:51;;;;;;;;;;;153.60;2252.80;;;;;;5037234;28;20274;-75
2021/12/19 02:34:21;;;;;;;;;;;128.90;2252.80;;;;;;5037247;28;19904;-80
2021/12/19 02:37:01;;;;;;;;;;;128.90;2252.80;;;;;;5037551;28;19920;-81
2021/12/19 02:50:14;;;;;;;;;;;153.60;2252.80;;;;;;5053192;28;19911;-81
2021/12/19 02:52:39;;;;;;;;;;;128.90;2252.80;;;;;;5040931;28;19939;-82
2021/12/19 02:55:06;;;;;;;;;;;128.90;2252.80;;;;;;5047751;28;19916;-81
2021/12/19 02:57:31;;;;;;;;;;;128.90;2252.80;;;;;;5039701;28;20359;-76
2021/12/19 02:59:57;;;;;;;;;;;154.00;2252.80;;;;;;5053914;28;19916;-75
2021/12/19 03:02:23;;;;;;;;;;;153.60;2252.80;;;;;;5054028;28;19909;-75
2021/12/19 03:04:53;;;;;;;;;;;153.70;2252.80;;;;;;5053959;28;19911;-82
2021/12/19 03:07:19;;;;;;;;;;;153.70;2252.80;;;;;;5037278;28;19913;-80
2021/12/19 03:18:05;;;;;;;;;;;153.60;2252.80;;;;;;5063142;28;19920;-82
2021/12/19 03:20:32;;;;;;;;;;;153.70;2252.80;;;;;;5046813;28;19927;-81
2021/12/19 03:22:59;;;;;;;;;;;153.60;2252.80;;;;;;5065082;28;19916;-80
2021/12/19 03:25:25;;;;;;;;;;;128.90;2252.80;;;;;;5045944;28;19916;-80
2021/12/19 03:27:50;;;;;;;;;;;128.90;2252.80;;;;;;5063281;28;19905;-79
2021/12/19 03:30:16;;;;;;;;;;;153.60;2252.80;;;;;;5062318;28;19958;-79
2021/12/19 03:32:42;;;;;;;;;;;153.60;2252.80;;;;;;5064812;28;19904;-80
2021/12/19 03:35:09;;;;;;;;;;;153.60;2252.80;;;;;;5063587;28;20401;-74
2021/12/19 03:37:34;;;;;;;;;;;128.90;2252.80;;;;;;5044492;28;19924;-80
2021/12/19 03:40:10;;;;;;;;;;;128.90;2252.80;;;;;;5046811;28;19904;-75
2021/12/19 03:42:37;;;;;;;;;;;128.90;2252.80;;;;;;5065319;28;19911;-76
2021/12/19 03:45:04;;;;;;;;;;;128.90;2252.80;;;;;;5046698;28;20006;-80
2021/12/19 03:47:30;;;;;;;;;;;128.90;2252.80;;;;;;5045066;28;19940;-81
2021/12/19 03:49:55;;;;;;;;;;;128.90;2252.80;;;;;;5062895;28;19997;-81
2021/12/19 03:52:21;;;;;;;;;;;153.60;2252.80;;;;;;5062537;28;20396;-82
2021/12/19 03:54:47;;;;;;;;;;;153.60;2252.80;;;;;;5065302;28;19909;-82
2021/12/19 03:57:12;;;;;;;;;;;153.80;2252.80;;;;;;5065213;28;19912;-82
2021/12/19 03:59:40;;;;;;;;;;;153.70;2252.80;;;;;;5062391;28;19984;-80
2021/12/19 04:02:06;;;;;;;;;;;153.70;2252.80;;;;;;5063897;28;19904;-79
2021/12/19 04:04:36;;;;;;;;;;;153.80;2252.80;;;;;;5061045;28;19911;-82
2021/12/19 04:07:02;;;;;;;;;;;153.70;2252.80;;;;;;5064956;28;19943;-80
2021/12/19 04:09:27;;;;;;;;;;;153.80;2252.80;;;;;;5044968;28;19911;-80
2021/12/19 04:11:55;;;;;;;;;;;153.80;2252.80;;;;;;5059754;28;20481;-77
2021/12/19 04:14:21;;;;;;;;;;;153.90;2252.80;;;;;;5053392;28;19905;-78
2021/12/19 04:16:46;;;;;;;;;;;153.90;2252.80;;;;;;5052880;28;19955;-80
2021/12/19 04:19:12;;;;;;;;;;;153.90;2252.80;;;;;;5053108;28;19928;-80
2021/12/19 04:21:38;;;;;;;;;;;153.90;2252.80;;;;;;5052940;28;19995;-80
2021/12/19 04:24:03;;;;;;;;;;;153.90;2252.80;;;;;;5048099;28;19951;-80
2021/12/19 04:26:29;;;;;;;;;;;153.90;2252.80;;;;;;5053023;28;19911;-79
2021/12/19 04:28:55;;;;;;;;;;;153.90;2252.80;;;;;;5052999;28;19912;-79
2021/12/19 04:31:20;;;;;;;;;;;153.80;2252.80;;;;;;5053256;28;19905;-79
2021/12/19 04:33:46;;;;;;;;;;;153.80;2252.80;;;;;;5052574;28;19911;-80
2021/12/19 04:36:20;;;;;;;;;;;153.80;2252.80;;;;;;5052932;28;19908;-80
2021/12/19 04:52:33;;;;;;;;;;;153.80;2252.80;;;;;;5052949;28;19916;-81
2021/12/19 05:00:30;;;;;;;;;;;154.00;2252.80;;;;;;5000484;28;20052;-79
2021/12/19 05:03:01;;;;;;;;;;;154.10;2252.80;;;;;;4997967;28;19949;-78
2021/12/19 05:05:57;;;;;;;;;;;153.90;2252.80;;;;;;5000206;28;19906;-79
2021/12/19 05:14:09;;;;;;;;;;;154.20;2252.80;;;;;;5009369;28;19916;-79
2021/12/19 05:16:37;;;;;;;;;;;154.00;2252.80;;;;;;4993946;28;20000;-79
2021/12/19 05:19:10;;;;;;;;;;;153.80;2252.80;;;;;;5010810;28;19909;-76
2021/12/19 05:21:38;;;;;;;;;;;153.80;2252.80;;;;;;4994380;28;19909;-80
2021/12/19 05:24:20;;;;;;;;;;;153.80;2252.80;;;;;;4994188;28;19913;-76
2021/12/19 05:26:47;;;;;;;;;;;154.00;2252.80;;;;;;5010474;28;20386;-78
2021/12/19 05:29:13;;;;;;;;;;;153.90;2252.80;;;;;;4993895;28;19996;-78
2021/12/19 05:31:39;;;;;;;;;;;153.80;2252.80;;;;;;5001214;28;20005;-75
2021/12/19 05:34:04;;;;;;;;;;;154.00;2252.80;;;;;;5010345;28;19988;-82
2021/12/19 05:47:27;;;;;;;;;;;154.40;2252.80;;;;;;5062654;28;19927;-79
2021/12/19 05:49:52;;;;;;;;;;;154.20;2252.80;;;;;;5061641;28;20359;-79
2021/12/19 05:52:18;;;;;;;;;;;154.30;2252.80;;;;;;5061900;28;20022;-79
2021/12/19 05:54:43;;;;;;;;;;;154.20;2252.80;;;;;;5060385;28;19974;-75
2021/12/19 05:57:09;;;;;;;;;;;154.20;2252.80;;;;;;5061273;28;19919;-81
2021/12/19 05:59:35;;;;;;;;;;;154.20;2252.80;;;;;;5044340;28;19904;-78
2021/12/19 06:02:01;;;;;;;;;;;154.10;2252.80;;;;;;5064611;28;19912;-79
2021/12/19 06:04:26;;;;;;;;;;;154.10;2252.80;;;;;;5064033;28;20376;-80
2021/12/19 06:06:52;;;;;;;;;;;154.10;2252.80;;;;;;5046797;28;19947;-80
2021/12/19 06:09:18;;;;;;;;;;;154.20;2252.80;;;;;;5065316;28;19912;-80
2021/12/19 06:11:44;;;;;;;;;;;154.10;2252.80;;;;;;5066935;28;19924;-79
2021/12/19 06:14:10;;;;;;;;;;;154.20;2252.80;;;;;;5044712;28;20321;-79
2021/12/19 06:16:35;;;;;;;;;;;154.00;2252.80;;;;;;5056410;28;19959;-81
2021/12/19 06:19:01;;;;;;;;;;;154.10;2252.80;;;;;;5055349;28;19963;-80
2021/12/19 06:21:26;;;;;;;;;;;154.00;2252.80;;;;;;5055161;28;19905;-80
2021/12/19 06:23:52;;;;;;;;;;;154.00;2252.80;;;;;;5055154;28;20358;-81
2021/12/19 06:26:18;;;;;;;;;;;154.10;2252.80;;;;;;5055182;28;19962;-75
2021/12/19 06:28:43;;;;;;;;;;;154.10;2252.80;;;;;;5037882;28;19970;-80
2021/12/19 06:31:09;;;;;;;;;;;154.10;2252.80;;;;;;5055676;28;20003;-76
2021/12/19 06:33:35;;;;;;;;;;;154.00;2252.80;;;;;;5038350;28;19905;-80
2021/12/19 06:36:01;;;;;;;;;;;154.00;2252.80;;;;;;5055514;28;19909;-80
2021/12/19 06:38:27;;;;;;;;;;;154.00;2252.80;;;;;;5054514;28;19920;-80
2021/12/19 06:40:53;;;;;;;;;;;154.10;2252.80;;;;;;5054931;28;19909;-80
2021/12/19 06:43:19;;;;;;;;;;;154.10;2252.80;;;;;;5054270;28;20373;-79
2021/12/19 06:45:45;;;;;;;;;;;154.00;2252.80;;;;;;5053838;28;19913;-77
2021/12/19 06:48:10;;;;;;;;;;;154.10;2252.80;;;;;;5054606;28;20378;-74
2021/12/19 06:50:36;;;;;;;;;;;154.20;2252.80;;;;;;5054586;28;19905;-79
2021/12/19 06:53:01;;;;;;;;;;;154.20;2252.80;;;;;;5036934;28;19912;-76
2021/12/19 06:55:27;;;;;;;;;;;154.20;2252.80;;;;;;5054727;28;19935;-80
2021/12/19 06:57:53;;;;;;;;;;;154.20;2252.80;;;;;;5054865;28;19913;-79
2021/12/19 07:00:20;;;;;;;;;;;154.20;2252.80;;;;;;5036548;28;19909;-76
2021/12/19 07:02:46;;;;;;;;;;;154.20;2252.80;;;;;;5054185;28;19995;-75
2021/12/19 07:05:12;;;;;;;;;;;154.20;2252.80;;;;;;5036046;28;19905;-75
2021/12/19 07:07:38;;;;;;;;;;;154.30;2252.80;;;;;;5054039;28;20469;-77
2021/12/19 07:10:05;;;;;;;;;;;154.30;2252.80;;;;;;5054393;28;19928;-78
2021/12/19 07:12:31;;;;;;;;;;;154.30;2252.80;;;;;;5052385;28;19924;-79
2021/12/19 07:14:57;;;;;;;;;;;154.30;2252.80;;;;;;5035872;28;19904;-76
2021/12/19 07:17:23;;;;;;;;;;;154.20;2252.80;;;;;;5053311;28;19918;-75
2021/12/19 07:19:49;;;;;;;;;;;154.40;2252.80;;;;;;5053662;28;19904;-77
2021/12/19 07:22:15;;;;;;;;;;;154.40;2252.80;;;;;;5053037;28;19909;-78
2021/12/19 07:24:40;;;;;;;;;;;154.40;2252.80;;;;;;5052891;28;19913;-81
2021/12/19 07:27:07;;;;;;;;;;;154.30;2252.80;;;;;;5053959;28;19913;-79
2021/12/19 07:29:32;;;;;;;;;;;154.40;2252.80;;;;;;5054008;28;19936;-75
2021/12/19 07:31:58;;;;;;;;;;;154.50;2252.80;;;;;;5053520;28;19959;-76
2021/12/19 07:34:31;;;;;;;;;;;154.50;2252.80;;;;;;5054086;28;19912;-78
2021/12/19 07:36:57;;;;;;;;;;;154.40;2252.80;;;;;;5033079;28;19959;-82
2021/12/19 07:39:27;;;;;;;;;;;154.40;2252.80;;;;;;5053534;28;19905;-74
2021/12/19 07:41:53;;;;;;;;;;;154.40;2252.80;;;;;;5030934;28;19991;-75
2021/12/19 07:44:18;;;;;;;;;;;154.50;2252.80;;;;;;5053467;28;19943;-80
2021/12/19 07:46:44;;;;;;;;;;;154.40;2252.80;;;;;;5053929;28;20066;-78
2021/12/19 07:49:10;;;;;;;;;;;154.20;2252.80;;;;;;5035954;28;19905;-75
2021/12/19 07:51:36;;;;;;;;;;;154.50;2252.80;;;;;;5035914;28;19904;-84
2021/12/19 07:54:02;;;;;;;;;;;154.40;2252.80;;;;;;5053175;28;20035;-74
2021/12/19 07:56:27;;;;;;;;;;;179.20;2252.80;;;;;;5035821;28;20002;-80
2021/12/19 07:58:53;;;;;;;;;;;154.50;2252.80;;;;;;5052867;28;19912;-78
2021/12/19 08:01:19;;;;;;;;;;;154.40;2252.80;;;;;;5035302;28;19915;-80
2021/12/19 08:03:44;;;;;;;;;;;154.40;2252.80;;;;;;5053555;28;19912;-74
2021/12/19 08:06:10;;;;;;;;;;;154.50;2252.80;;;;;;5053114;28;19992;-75
2021/12/19 08:08:36;;;;;;;;;;;154.40;2252.80;;;;;;5053357;28;20367;-79
2021/12/19 08:13:46;;;;;;;;;;;154.50;2252.80;;;;;;5043591;28;19975;-78
2021/12/19 08:16:11;;;;;;;;;;;179.20;2252.80;;;;;;5041706;28;20362;-79
2021/12/19 08:18:37;;;;;;;;;;;179.20;2252.80;;;;;;5024749;28;20013;-76
2021/12/19 08:21:03;;;;;;;;;;;179.30;2252.80;;;;;;5043054;28;19909;-80
2021/12/19 08:23:28;;;;;;;;;;;154.50;2252.80;;;;;;5043653;28;19917;-78
2021/12/19 08:25:54;;;;;;;;;;;179.20;2252.80;;;;;;5044073;28;19909;-78
2021/12/19 08:28:20;;;;;;;;;;;179.20;2252.80;;;;;;5024661;28;19905;-76
2021/12/19 08:30:45;;;;;;;;;;;179.20;2252.80;;;;;;5025430;28;19905;-78
2021/12/19 08:33:11;;;;;;;;;;;179.30;2252.80;;;;;;5043535;28;19912;-79
2021/12/19 08:35:36;;;;;;;;;;;179.40;2252.80;;;;;;5042785;28;20256;-79
2021/12/19 08:38:02;;;;;;;;;;;179.40;2252.80;;;;;;5042943;28;19912;-80
2021/12/19 08:40:29;;;;;;;;;;;179.40;2252.80;;;;;;5026216;28;20355;-75
2021/12/19 08:42:54;;;;;;;;;;;179.40;2252.80;;;;;;5040999;28;20373;-77
2021/12/19 08:45:23;;;;;;;;;;;179.40;2252.80;;;;;;5024103;28;19904;-75
2021/12/19 08:47:49;;;;;;;;;;;179.40;2252.80;;;;;;5023823;28;19904;-76
2021/12/19 08:50:15;;;;;;;;;;;179.40;2252.80;;;;;;5038788;28;20402;-77
2021/12/19 08:52:42;;;;;;;;;;;179.40;2252.80;;;;;;5026649;28;19916;-79
2021/12/19 08:55:08;;;;;;;;;;;179.40;2252.80;;;;;;5041652;28;19908;-76
2021/12/19 08:57:34;;;;;;;;;;;179.40;2252.80;;;;;;5020409;28;20434;-80
2021/12/19 08:59:59;;;;;;;;;;;179.40;2252.80;;;;;;5040608;28;19951;-75
2021/12/19 09:02:25;;;;;;;;;;;179.40;2252.80;;;;;;5043279;28;19959;-78
2021/12/19 09:04:50;;;;;;;;;;;179.40;2252.80;;;;;;5040532;28;19939;-76
2021/12/19 09:07:18;;;;;;;;;;;179.50;2252.80;;;;;;5043433;28;19951;-79
2021/12/19 09:09:45;;;;;;;;;;;179.50;2252.80;;;;;;5042602;28;20359;-77
2021/12/19 09:12:10;;;;;;;;;;;179.50;2252.80;;;;;;5037786;28;19999;-75
2021/12/19 09:14:36;;;;;;;;;;;179.50;2252.80;;;;;;5043704;28;20438;-80
2021/12/19 09:17:02;;;;;;;;;;;179.60;2252.80;;;;;;5024725;28;20285;-80
2021/12/19 09:19:28;;;;;;;;;;;179.40;2252.80;;;;;;5042016;28;19915;-75
2021/12/19 09:21:54;;;;;;;;;;;179.60;2252.80;;;;;;5043811;28;20003;-78
2021/12/19 09:24:20;;;;;;;;;;;179.60;2252.80;;;;;;5041914;28;19974;-75
2021/12/19 09:26:46;;;;;;;;;;;179.70;2252.80;;;;;;5042350;28;19947;-80
2021/12/19 09:29:11;;;;;;;;;;;179.60;2252.80;;;;;;5043090;28;19912;-78
2021/12/19 09:31:37;;;;;;;;;;;179.80;2252.80;;;;;;5043271;28;19995;-77
2021/12/19 09:34:03;;;;;;;;;;;179.80;2252.80;;;;;;5040769;28;19905;-74
2021/12/19 09:36:29;;;;;;;;;;;179.70;2252.80;;;;;;5039462;28;19952;-75
2021/12/19 09:38:55;;;;;;;;;;;179.80;2252.80;;;;;;5018791;28;19994;-78
2021/12/19 09:41:29;;;;;;;;;;;179.70;2252.80;;;;;;5036786;28;19960;-75
2021/12/19 09:43:58;;;;;;;;;;;179.70;2252.80;;;;;;5036339;28;20393;-79
2021/12/19 09:46:28;;;;;;;;;;;179.80;2252.80;;;;;;5036559;28;19905;-79
2021/12/19 09:48:54;;;;;;;;;;;179.80;2252.80;;;;;;5036118;28;19973;-76
2021/12/19 09:51:19;;;;;;;;;;;179.80;2252.80;;;;;;5036544;28;19909;-75
2021/12/19 09:53:45;;;;;;;;;;;179.80;2252.80;;;;;;5036227;28;20424;-79
2021/12/19 09:56:11;;;;;;;;;;;179.80;2252.80;;;;;;5036156;28;19915;-79
2021/12/19 09:58:37;;;;;;;;;;;179.70;2252.80;;;;;;5036066;28;19913;-79
2021/12/19 10:01:04;;;;;;;;;;;179.70;2252.80;;;;;;5018132;28;19951;-78
2021/12/19 10:03:30;;;;;;;;;;;179.70;2252.80;;;;;;5019382;28;19909;-80
2021/12/19 10:06:15;;;;;;;;;;;179.70;2252.80;;;;;;5038542;28;20289;-75
2021/12/19 10:08:41;;;;;;;;;;;179.80;2252.80;;;;;;5042936;28;19920;-77
2021/12/19 10:11:29;;;;;;;;;;;179.90;2252.80;;;;;;5045227;28;19905;-77
2021/12/19 10:13:55;;;;;;;;;;;179.80;2252.80;;;;;;5063227;28;19917;-76
2021/12/19 10:16:25;;;;;;;;;;;179.80;2252.80;;;;;;5042377;28;19987;-76
2021/12/19 10:18:55;;;;;;;;;;;179.90;2252.80;;;;;;5050154;28;20282;-75
2021/12/19 10:21:20;;;;;;;;;;;179.80;2252.80;;;;;;5069626;28;19913;-81
2021/12/19 10:23:46;;;;;;;;;;;180.00;2252.80;;;;;;5055429;28;19947;-77
2021/12/19 10:26:12;;;;;;;;;;;180.00;2252.80;;;;;;5053987;28;19917;-75
2021/12/19 10:28:58;;;;;;;;;;;180.00;2252.80;;;;;;5061016;28;19974;-79
2021/12/19 10:31:25;;;;;;;;;;;180.00;2252.80;;;;;;5063962;28;19911;-80
2021/12/19 10:33:51;;;;;;;;;;;180.10;2252.80;;;;;;5055950;28;19904;-79
2021/12/19 10:36:17;;;;;;;;;;;180.00;2252.80;;;;;;5071944;28;19904;-81
2021/12/19 10:38:44;;;;;;;;;;;180.00;2252.80;;;;;;5076294;28;20309;-83
2021/12/19 10:41:35;;;;;;;;;;;180.10;2252.80;;;;;;5057907;28;20307;-83
2021/12/19 10:44:10;;;;;;;;;;;180.10;2252.80;;;;;;5079883;28;19912;-77
2021/12/19 10:46:38;;;;;;;;;;;180.10;2252.80;;;;;;5054539;28;19912;-84
2021/12/19 10:49:04;;;;;;;;;;;205.00;2252.80;;;;;;5054705;28;19908;-76
2021/12/19 10:51:32;;;;;;;;;;;205.00;2252.80;;;;;;5037122;28;19927;-77
2021/12/19 10:54:00;;;;;;;;;;;205.10;2252.80;;;;;;5054638;28;19920;-74
2021/12/19 10:56:33;;;;;;;;;;;205.00;2252.80;;;;;;5036855;28;19905;-83
2021/12/19 10:59:06;;;;;;;;;;;205.10;2252.80;;;;;;5069858;28;19923;-76
2021/12/19 11:01:33;;;;;;;;;;;205.00;2252.80;;;;;;5036606;28;19915;-84
2021/12/19 11:03:59;;;;;;;;;;;204.90;2252.80;;;;;;5035998;28;19909;-79
2021/12/19 11:06:27;;;;;;;;;;;205.10;2252.80;;;;;;5036973;28;19911;-79
2021/12/19 11:08:53;;;;;;;;;;;205.20;2252.80;;;;;;5055349;28;19911;-81
2021/12/19 11:11:33;;;;;;;;;;;204.80;2252.80;;;;;;5055356;28;19908;-81
2021/12/19 11:13:59;;;;;;;;;;;205.00;2252.80;;;;;;5054809;28;19912;-75
2021/12/19 11:16:25;;;;;;;;;;;205.30;2252.80;;;;;;5054974;28;20341;-76
2021/12/19 11:18:51;;;;;;;;;;;205.30;2252.80;;;;;;5054367;28;20363;-81
2021/12/19 11:21:19;;;;;;;;;;;205.30;2252.80;;;;;;5054536;28;20345;-76
2021/12/19 11:23:46;;;;;;;;;;;205.40;2252.80;;;;;;5053614;28;19909;-83
2021/12/19 11:26:11;;;;;;;;;;;205.40;2252.80;;;;;;5053610;28;19927;-83
2021/12/19 11:28:37;;;;;;;;;;;205.20;2252.80;;;;;;5054309;28;19909;-82
2021/12/19 11:31:03;;;;;;;;;;;205.00;2252.80;;;;;;5035936;28;20027;-76
2021/12/19 11:33:29;;;;;;;;;;;205.20;2252.80;;;;;;5035329;28;19934;-79
2021/12/19 11:35:56;;;;;;;;;;;205.40;2252.80;;;;;;5053283;28;20351;-79
2021/12/19 11:38:22;;;;;;;;;;;205.50;2252.80;;;;;;5053418;28;19913;-78
2021/12/19 11:40:50;;;;;;;;;;;205.40;2252.80;;;;;;5053538;28;20055;-81
2021/12/19 11:43:16;;;;;;;;;;;205.30;2252.80;;;;;;5036238;28;19939;-79
2021/12/19 11:45:46;;;;;;;;;;;205.20;2252.80;;;;;;5039664;28;19974;-76
2021/12/19 11:50:55;;;;;;;;;;;205.30;2252.80;;;;;;5063572;28;20362;-84
2021/12/19 11:53:23;;;;;;;;;;;205.30;2252.80;;;;;;5043186;28;19909;-79
2021/12/19 11:55:50;;;;;;;;;;;205.50;2252.80;;;;;;5043177;28;19962;-81
2021/12/19 11:58:23;;;;;;;;;;;205.60;2252.80;;;;;;5035319;28;19912;-78
2021/12/19 12:00:51;;;;;;;;;;;205.60;2252.80;;;;;;5036162;28;19905;-82
2021/12/19 12:03:18;;;;;;;;;;;205.60;2252.80;;;;;;5053769;28;19911;-78
2021/12/19 12:05:47;;;;;;;;;;;230.40;2252.80;;;;;;5053357;28;19905;-82
2021/12/19 12:08:20;;;;;;;;;;;230.40;2252.80;;;;;;5053664;28;19905;-81
2021/12/19 12:10:49;;;;;;;;;;;205.70;2252.80;;;;;;5053505;28;19948;-82
2021/12/19 12:13:23;;;;;;;;;;;230.50;2252.80;;;;;;5053755;28;19932;-76
2021/12/19 12:15:51;;;;;;;;;;;230.50;2252.80;;;;;;5053317;28;20413;-83
2021/12/19 12:18:37;;;;;;;;;;;230.50;2252.80;;;;;;5052148;28;19916;-80
2021/12/19 12:21:17;;;;;;;;;;;230.40;2252.80;;;;;;5035176;28;19904;-79
2021/12/19 12:23:51;;;;;;;;;;;230.40;2252.80;;;;;;5052053;28;19913;-78
2021/12/19 12:26:28;;;;;;;;;;;230.40;2252.80;;;;;;5034411;28;19974;-80
2021/12/19 12:28:53;;;;;;;;;;;230.50;2252.80;;;;;;5049733;28;19908;-82
2021/12/19 12:31:19;;;;;;;;;;;230.40;2252.80;;;;;;5053180;28;19919;-82
2021/12/19 12:33:45;;;;;;;;;;;230.60;2252.80;;;;;;5053598;28;20317;-83
2021/12/19 12:36:11;;;;;;;;;;;230.60;2252.80;;;;;;5036890;28;19941;-82
2021/12/19 12:38:36;;;;;;;;;;;230.60;2252.80;;;;;;5035507;28;20350;-82
2021/12/19 12:41:08;;;;;;;;;;;230.60;2252.80;;;;;;5032649;28;20359;-81
2021/12/19 12:43:39;;;;;;;;;;;230.60;2252.80;;;;;;5031694;28;20355;-85
2021/12/19 12:46:09;;;;;;;;;;;230.60;2252.80;;;;;;5033124;28;19905;-83
2021/12/19 12:48:51;;;;;;;;;;;230.50;2252.80;;;;;;5032088;28;20310;-84
2021/12/19 12:51:38;;;;;;;;;;;230.50;2252.80;;;;;;5032604;28;19959;-83
2021/12/19 12:54:12;;;;;;;;;;;230.60;2252.80;;;;;;5032693;28;19913;-85
2021/12/19 12:56:44;;;;;;;;;;;230.60;2252.80;;;;;;5031360;28;20282;-81
2021/12/19 12:59:10;;;;;;;;;;;230.60;2252.80;;;;;;5030808;28;19963;-83
2021/12/19 13:01:42;;;;;;;;;;;230.40;2252.80;;;;;;5032902;28;19913;-78
2021/12/19 13:04:09;;;;;;;;;;;230.60;2252.80;;;;;;5046706;28;20008;-82
2021/12/19 13:06:39;;;;;;;;;;;230.60;2252.80;;;;;;5051713;28;19927;-80
2021/12/19 13:09:09;;;;;;;;;;;230.80;2252.80;;;;;;5034595;28;20003;-82
2021/12/19 13:11:36;;;;;;;;;;;230.70;2252.80;;;;;;5035415;28;19921;-80
2021/12/19 13:14:10;;;;;;;;;;;230.70;2252.80;;;;;;5029383;28;19905;-82
2021/12/19 13:16:47;;;;;;;;;;;230.70;2252.80;;;;;;5027211;28;19955;-82
2021/12/19 13:19:31;;;;;;;;;;;230.70;2252.80;;;;;;5044967;28;19913;-80
2021/12/19 13:21:56;;;;;;;;;;;230.70;2252.80;;;;;;5028703;28;20015;-76
2021/12/19 13:24:24;;;;;;;;;;;230.60;2252.80;;;;;;5048123;28;19962;-79
2021/12/19 13:27:01;;;;;;;;;;;230.60;2252.80;;;;;;5056910;28;20399;-81
2021/12/19 13:29:27;;;;;;;;;;;230.60;2252.80;;;;;;5057041;28;19912;-81
2021/12/19 13:31:52;;;;;;;;;;;230.60;2252.80;;;;;;5056933;28;19905;-82
2021/12/19 13:34:18;;;;;;;;;;;230.70;2252.80;;;;;;5035844;28;19974;-81
2021/12/19 13:37:00;;;;;;;;;;;230.70;2252.80;;;;;;5036752;28;19909;-81
2021/12/19 13:39:26;;;;;;;;;;;230.60;2252.80;;;;;;5019318;28;19948;-80
2021/12/19 13:41:51;;;;;;;;;;;230.60;2252.80;;;;;;5036645;28;19963;-75
2021/12/19 13:44:29;;;;;;;;;;;230.70;2252.80;;;;;;5036603;28;19909;-83
2021/12/19 13:46:56;;;;;;;;;;;230.70;2252.80;;;;;;5036828;28;19972;-82
2021/12/19 13:49:21;;;;;;;;;;;230.70;2252.80;;;;;;5018731;28;20382;-82
2021/12/19 13:51:47;;;;;;;;;;;230.60;2252.80;;;;;;5036567;28;19917;-82
2021/12/19 13:54:12;;;;;;;;;;;230.40;2252.80;;;;;;5036648;28;20000;-82
2021/12/19 13:56:38;;;;;;;;;;;230.50;2252.80;;;;;;5036054;28;19905;-82
2021/12/19 13:59:17;;;;;;;;;;;230.50;2252.80;;;;;;5036488;28;19920;-82
2021/12/19 14:01:43;;;;;;;;;;;230.50;2252.80;;;;;;5019392;28;19928;-75
2021/12/19 14:04:17;;;;;;;;;;;230.40;2252.80;;;;;;5036963;28;19908;-80
2021/12/19 14:06:45;;;;;;;;;;;230.70;2252.80;;;;;;5045342;28;19905;-77
2021/12/19 14:09:11;;;;;;;;;;;230.80;2252.80;;;;;;5031678;28;20325;-82
2021/12/19 14:11:40;;;;;;;;;;;230.90;2252.80;;;;;;5049373;28;19920;-83
2021/12/19 14:17:06;;;;;;;;;;;230.90;2252.80;;;;;;5056099;28;19931;-75
2021/12/19 14:19:36;;;;;;;;;;;230.80;2252.80;;;;;;5041146;28;19995;-76
2021/12/19 14:22:02;;;;;;;;;;;230.90;2252.80;;;;;;5057875;28;19915;-76
2021/12/19 14:24:31;;;;;;;;;;;230.90;2252.80;;;;;;5057491;28;19913;-79
2021/12/19 14:27:05;;;;;;;;;;;231.00;2252.80;;;;;;5034417;28;19905;-77
2021/12/19 14:29:31;;;;;;;;;;;231.00;2252.80;;;;;;5057694;28;20359;-81
2021/12/19 14:31:58;;;;;;;;;;;230.90;2252.80;;;;;;5058419;28;19911;-77
2021/12/19 14:34:27;;;;;;;;;;;230.90;2252.80;;;;;;5055045;28;19905;-81
2021/12/19 14:36:53;;;;;;;;;;;230.90;2252.80;;;;;;5038944;28;20447;-75
2021/12/19 14:39:20;;;;;;;;;;;230.90;2252.80;;;;;;5036238;28;19967;-80
2021/12/19 14:41:46;;;;;;;;;;;231.00;2252.80;;;;;;5018336;28;19905;-81
2021/12/19 14:44:22;;;;;;;;;;;231.00;2252.80;;;;;;5035461;28;19959;-77
2021/12/19 14:46:49;;;;;;;;;;;231.00;2252.80;;;;;;5035284;28;19905;-78
2021/12/19 14:49:14;;;;;;;;;;;231.00;2252.80;;;;;;5035080;28;20007;-76
2021/12/19 14:51:40;;;;;;;;;;;231.00;2252.80;;;;;;5035209;28;20345;-80
2021/12/19 14:54:08;;;;;;;;;;;231.00;2252.80;;;;;;5035807;28;19909;-80